Time;durP1;ratioP1;P1;durP2;ratioP2;P2;SDS_P1;SDS_P2;PMS_P1;PMS_P2;Temp;Humidity;BMP_temperature;BMP_pressure;BME280_temperature;BME280_humidity;BME280_pressure;Samples;Min_cycle;Max_cycle;Signal;HPM_P1;HPM_P2
2022/12/27 00:01:33;;;;;;;21.08;11.55;;;;;;;-0.57;78.86;94161.38;5043578;28;20556;-42
2022/12/27 00:03:58;;;;;;;32.55;17.88;;;;;;;-0.52;79.12;94155.28;5064216;28;20458;-40
2022/12/27 00:06:25;;;;;;;28.75;14.13;;;;;;;-0.55;79.75;94158.19;5069141;28;20028;-40
2022/12/27 00:08:51;;;;;;;25.92;13.10;;;;;;;-0.50;79.97;94152.91;5069692;28;20048;-40
2022/12/27 00:11:19;;;;;;;15.63;8.88;;;;;;;-0.46;80.03;94153.47;5067811;28;20492;-42
2022/12/27 00:13:45;;;;;;;23.33;12.43;;;;;;;-0.61;79.81;94136.38;5069578;28;20492;-42
2022/12/27 00:16:13;;;;;;;37.78;17.98;;;;;;;-0.31;79.61;94159.72;5068696;28;20038;-41
2022/12/27 00:18:39;;;;;;;38.80;16.80;;;;;;;-0.14;78.73;94160.81;5065622;28;20499;-40
2022/12/27 00:21:06;;;;;;;39.25;19.25;;;;;;;-0.13;77.36;94167.00;5070068;28;20102;-40
2022/12/27 00:23:35;;;;;;;45.35;22.55;;;;;;;-0.20;77.95;94173.53;5068599;28;20111;-40
2022/12/27 00:26:11;;;;;;;43.33;21.48;;;;;;;-0.14;77.70;94160.06;5064707;28;20067;-41
2022/12/27 00:28:37;;;;;;;41.70;22.63;;;;;;;-0.33;77.92;94148.59;5069118;28;20028;-39
2022/12/27 00:31:04;;;;;;;53.78;26.65;;;;;;;-0.18;78.13;94145.91;5068446;28;20055;-40
2022/12/27 00:33:31;;;;;;;45.88;24.27;;;;;;;-0.09;77.81;94146.59;5065403;28;20032;-40
2022/12/27 00:35:58;;;;;;;56.63;26.58;;;;;;;-0.38;77.40;94130.22;5068310;28;20103;-40
2022/12/27 00:38:24;;;;;;;54.20;25.38;;;;;;;-0.36;77.67;94151.44;5062006;28;20033;-40
2022/12/27 00:40:49;;;;;;;47.85;23.77;;;;;;;-0.55;78.53;94153.53;5066479;28;20085;-40
2022/12/27 00:43:15;;;;;;;50.28;24.95;;;;;;;-0.69;79.99;94148.75;5066742;28;20427;-54
2022/12/27 00:45:41;;;;;;;46.17;24.20;;;;;;;-0.68;80.02;94150.28;5063466;28;20098;-55
2022/12/27 00:48:06;;;;;;;46.22;23.48;;;;;;;-0.63;79.98;94140.75;5061459;28;20120;-56
2022/12/27 00:50:32;;;;;;;37.63;23.23;;;;;;;-0.72;80.95;94157.06;5065874;28;20060;-54
2022/12/27 00:52:57;;;;;;;35.42;20.60;;;;;;;-0.91;81.57;94159.84;5065281;28;20062;-40
2022/12/27 00:55:23;;;;;;;37.78;22.42;;;;;;;-0.93;81.80;94159.56;5067952;28;20445;-39
2022/12/27 00:57:48;;;;;;;34.97;15.48;;;;;;;-0.81;81.13;94158.63;5066577;28;20395;-40
2022/12/27 01:00:14;;;;;;;26.73;15.95;;;;;;;-0.83;80.70;94133.16;5066099;28;20423;-40
2022/12/27 01:02:40;;;;;;;32.83;16.90;;;;;;;-0.81;80.11;94147.00;5065919;28;20395;-41
2022/12/27 01:05:05;;;;;;;41.33;20.08;;;;;;;-0.75;80.90;94147.88;5063936;28;20028;-40
2022/12/27 01:07:31;;;;;;;41.80;20.73;;;;;;;-0.71;81.22;94147.75;5068527;28;20119;-40
2022/12/27 01:09:56;;;;;;;47.38;23.90;;;;;;;-0.81;80.56;94125.31;5067628;28;20028;-41
2022/12/27 01:12:22;;;;;;;55.42;28.60;;;;;;;-0.61;80.05;94139.09;5068347;28;20020;-40
2022/12/27 01:14:47;;;;;;;59.03;30.58;;;;;;;-0.68;80.44;94138.66;5069080;28;20074;-40
2022/12/27 01:17:13;;;;;;;52.60;29.40;;;;;;;-0.56;80.11;94151.28;5069347;28;20508;-40
2022/12/27 01:19:38;;;;;;;56.55;29.08;;;;;;;-0.43;79.70;94133.56;5067640;28;20412;-41
2022/12/27 01:22:05;;;;;;;49.33;25.15;;;;;;;-0.44;79.03;94126.63;5069267;28;20400;-41
2022/12/27 01:24:31;;;;;;;42.30;24.17;;;;;;;-0.45;79.46;94130.56;5068199;28;20507;-41
2022/12/27 01:26:56;;;;;;;55.40;27.10;;;;;;;-0.37;78.62;94130.97;5068598;28;20538;-40
2022/12/27 01:29:22;;;;;;;39.10;19.33;;;;;;;-0.51;78.67;94107.22;5068762;28;20051;-42
2022/12/27 01:31:48;;;;;;;36.38;18.85;;;;;;;-0.27;78.82;94125.03;5064470;28;20041;-40
2022/12/27 01:34:14;;;;;;;47.30;24.25;;;;;;;-0.36;79.06;94118.91;5065114;28;20446;-41
2022/12/27 01:36:40;;;;;;;46.75;25.92;;;;;;;-0.44;79.84;94113.09;5066401;28;20036;-41
2022/12/27 01:39:07;;;;;;;43.85;22.63;;;;;;;-0.66;80.08;94114.56;5068577;28;20411;-40
2022/12/27 01:44:50;;;;;;;52.80;26.90;;;;;;;-0.95;81.37;94117.84;5068724;28;20089;-41
2022/12/27 01:47:17;;;;;;;64.82;32.45;;;;;;;-0.87;81.11;94117.06;5066454;28;20032;-41
2022/12/27 01:49:55;;;;;;;52.67;29.42;;;;;;;-0.81;81.22;94106.34;5050560;28;20029;-41
2022/12/27 01:52:21;;;;;;;58.85;28.67;;;;;;;-0.75;80.69;94107.22;5068723;28;20630;-41
2022/12/27 01:54:47;;;;;;;51.83;28.13;;;;;;;-0.81;80.46;94103.66;5064421;28;20037;-39
2022/12/27 01:57:12;;;;;;;42.20;20.83;;;;;;;-0.76;80.82;94105.72;5069088;28;20028;-40
2022/12/27 01:59:38;;;;;;;48.05;23.23;;;;;;;-0.72;81.02;94114.44;5049789;28;20021;-40
2022/12/27 02:02:04;;;;;;;45.08;22.98;;;;;;;-0.76;79.58;94111.16;5068089;28;20108;-40
2022/12/27 02:04:30;;;;;;;93.85;36.92;;;;;;;-0.77;79.53;94107.69;5068203;28;20094;-40
2022/12/27 02:06:56;;;;;;;82.40;32.95;;;;;;;-0.66;79.65;94112.59;5068154;28;20025;-40
2022/12/27 02:09:32;;;;;;;95.45;38.35;;;;;;;-0.49;78.23;94111.00;5068192;28;20026;-41
2022/12/27 02:12:00;;;;;;;114.55;41.63;;;;;;;-0.54;78.32;94117.03;5050293;28;20021;-40
2022/12/27 02:14:31;;;;;;;100.78;36.65;;;;;;;-0.62;78.58;94109.72;5069111;28;20025;-39
2022/12/27 02:16:58;;;;;;;98.97;39.90;;;;;;;-0.66;78.93;94109.88;5071874;28;20411;-39
2022/12/27 02:19:29;;;;;;;85.50;34.17;;;;;;;-0.84;79.60;94109.97;5053563;28;20032;-40
2022/12/27 02:22:27;;;;;;;54.20;25.33;;;;;;;-0.91;79.11;94115.75;5069841;28;20044;-39
2022/12/27 02:24:56;;;;;;;50.05;24.48;;;;;;;-0.91;79.36;94099.47;5070045;28;20697;-40
2022/12/27 02:27:46;;;;;;;48.53;24.55;;;;;;;-0.79;79.44;94107.41;5054569;28;20108;-39
2022/12/27 02:30:12;;;;;;;37.05;21.75;;;;;;;-0.97;80.52;94104.00;5072486;28;20032;-39
2022/12/27 02:32:46;;;;;;;40.30;21.17;;;;;;;-1.10;81.29;94098.78;5049971;28;20040;-40
2022/12/27 02:35:23;;;;;;;50.47;20.00;;;;;;;-1.05;81.23;94083.88;5051729;28;20057;-39
2022/12/27 02:38:09;;;;;;;50.15;21.05;;;;;;;-0.88;80.79;94104.72;5048301;28;20033;-39
2022/12/27 02:55:21;;;;;;;67.13;29.10;;;;;;;-0.99;80.28;94101.00;5050763;28;20523;-40
2022/12/27 02:57:56;;;;;;;59.60;31.80;;;;;;;-0.96;80.76;94102.81;5050909;28;20135;-40
2022/12/27 03:03:29;;;;;;;80.15;35.38;;;;;;;-0.84;79.80;94104.56;5050364;28;20083;-40
2022/12/27 03:17:51;;;;;;;39.22;22.02;;;;;;;-1.13;80.16;94123.34;5049445;28;20041;-39
2022/12/27 03:25:54;;;;;;;44.55;21.42;;;;;;;-0.90;79.46;94123.41;5043430;28;20091;-39
2022/12/27 03:34:30;;;;;;;33.47;17.63;;;;;;;-0.95;79.62;94105.06;5045046;28;20032;-39
2022/12/27 03:39:35;;;;;;;48.65;23.27;;;;;;;-0.87;79.63;94111.63;5049416;28;20040;-39
2022/12/27 03:44:48;;;;;;;54.42;26.33;;;;;;;-0.81;78.57;94119.91;5046230;28;20541;-39
2022/12/27 03:47:23;;;;;;;58.50;28.42;;;;;;;-0.77;78.50;94112.34;5050110;28;20111;-40
2022/12/27 03:50:18;;;;;;;56.63;27.73;;;;;;;-0.89;78.31;94114.06;5044386;28;20032;-39
2022/12/27 03:52:55;;;;;;;47.85;23.98;;;;;;;-1.20;79.46;94110.13;5032894;28;20094;-40
2022/12/27 03:55:21;;;;;;;39.80;20.20;;;;;;;-1.23;79.37;94121.88;5050507;28;20072;-39
2022/12/27 03:57:46;;;;;;;37.00;22.38;;;;;;;-1.32;79.60;94124.63;5048710;28;20052;-40
2022/12/27 04:00:12;;;;;;;37.58;21.55;;;;;;;-1.33;80.44;94125.81;5046305;28;20029;-40
2022/12/27 04:02:38;;;;;;;40.25;22.52;;;;;;;-1.51;80.96;94123.91;5053161;28;20112;-39
2022/12/27 04:05:03;;;;;;;45.88;24.52;;;;;;;-1.47;81.18;94112.94;5052456;28;20393;-40
2022/12/27 04:07:29;;;;;;;43.70;22.13;;;;;;;-1.43;80.85;94124.34;5049557;28;20059;-39
2022/12/27 04:34:38;;;;;;;38.58;21.73;;;;;;;-1.61;79.35;94088.00;5049667;28;20608;-39
2022/12/27 04:37:04;;;;;;;56.00;26.33;;;;;;;-1.40;79.22;94110.63;5049679;28;20056;-38
2022/12/27 04:39:29;;;;;;;36.70;21.40;;;;;;;-1.46;79.83;94139.56;5049467;28;20489;-39
2022/12/27 04:55:48;;;;;;;31.55;17.67;;;;;;;-1.73;80.23;94153.09;5042903;28;20039;-39
2022/12/27 04:58:13;;;;;;;22.60;14.55;;;;;;;-1.76;80.14;94140.50;5046994;28;20033;-40
2022/12/27 05:03:23;;;;;;;41.33;21.38;;;;;;;-1.47;79.80;94151.56;5045701;28;20523;-39
2022/12/27 05:05:49;;;;;;;38.47;20.90;;;;;;;-1.56;79.21;94113.72;5047668;28;20029;-41
2022/12/27 05:13:58;;;;;;;32.53;18.05;;;;;;;-1.45;79.11;94149.16;5045214;28;20031;-40
2022/12/27 05:16:24;;;;;;;35.85;20.92;;;;;;;-1.41;79.57;94160.63;5044350;28;20025;-39
2022/12/27 05:18:51;;;;;;;35.13;20.67;;;;;;;-1.40;79.13;94153.22;5046643;28;20049;-39
2022/12/27 05:21:17;;;;;;;36.47;19.83;;;;;;;-1.40;79.52;94139.69;5048597;28;20040;-40
2022/12/27 05:26:28;;;;;;;38.20;20.65;;;;;;;-1.54;80.40;94132.94;5046095;28;20075;-39
2022/12/27 05:28:54;;;;;;;34.00;20.33;;;;;;;-1.50;80.96;94140.91;5047906;28;20534;-39
2022/12/27 05:31:21;;;;;;;37.65;21.00;;;;;;;-1.52;80.72;94144.81;5050384;28;20048;-39
2022/12/27 05:33:48;;;;;;;30.25;18.10;;;;;;;-1.43;80.30;94140.59;5066163;28;20017;-39
2022/12/27 05:36:13;;;;;;;30.27;18.13;;;;;;;-1.59;80.70;94142.44;5063838;28;20017;-39
2022/12/27 05:38:39;;;;;;;42.45;20.33;;;;;;;-1.99;81.75;94119.47;5066086;28;20035;-40
2022/12/27 05:41:04;;;;;;;24.95;16.60;;;;;;;-1.84;81.88;94137.34;5063808;28;20025;-39
2022/12/27 05:43:31;;;;;;;24.83;16.00;;;;;;;-1.87;82.60;94146.38;5066562;28;20040;-39
2022/12/27 05:46:05;;;;;;;27.77;15.65;;;;;;;-2.00;83.99;94143.06;5065247;28;20053;-39
2022/12/27 05:48:31;;;;;;;27.80;14.52;;;;;;;-1.90;84.61;94144.56;5070699;28;20039;-39
2022/12/27 05:50:56;;;;;;;23.85;14.63;;;;;;;-1.75;84.46;94158.97;5066823;28;20024;-40
2022/12/27 05:53:22;;;;;;;28.77;15.65;;;;;;;-1.62;83.37;94151.44;5069903;28;20461;-39
2022/12/27 05:55:57;;;;;;;33.72;17.08;;;;;;;-1.57;81.78;94158.22;5071208;28;20191;-39
2022/12/27 05:58:24;;;;;;;30.05;15.20;;;;;;;-1.60;81.10;94157.16;5070075;28;20024;-40
2022/12/27 06:00:49;;;;;;;33.83;16.27;;;;;;;-1.72;80.33;94136.44;5069805;28;20034;-40
2022/12/27 06:03:14;;;;;;;36.50;18.48;;;;;;;-1.54;80.96;94147.22;5070904;28;20021;-40
2022/12/27 06:05:40;;;;;;;31.15;16.77;;;;;;;-1.48;81.15;94144.66;5069242;28;20060;-39
2022/12/27 06:08:07;;;;;;;30.88;17.15;;;;;;;-1.36;80.47;94149.16;5070921;28;20107;-40
2022/12/27 06:10:32;;;;;;;26.02;16.60;;;;;;;-1.18;79.82;94161.91;5070659;28;20043;-40
2022/12/27 06:12:59;;;;;;;32.95;18.13;;;;;;;-1.32;80.26;94154.41;5069028;28;20017;-40
2022/12/27 06:15:24;;;;;;;30.15;19.13;;;;;;;-1.26;80.29;94158.78;5071378;28;20052;-40
2022/12/27 06:17:50;;;;;;;24.58;16.20;;;;;;;-1.31;81.32;94164.03;5069321;28;20029;-39
2022/12/27 06:20:15;;;;;;;24.85;16.25;;;;;;;-1.33;82.46;94166.44;5070101;28;20591;-40
2022/12/27 06:22:41;;;;;;;29.30;16.08;;;;;;;-1.50;82.66;94127.38;5064027;28;20028;-40
2022/12/27 06:25:07;;;;;;;25.92;14.60;;;;;;;-1.10;82.70;94165.78;5070397;28;20037;-40
2022/12/27 06:27:33;;;;;;;29.05;16.00;;;;;;;-1.02;82.44;94166.97;5065169;28;20028;-40
2022/12/27 06:29:58;;;;;;;28.00;16.35;;;;;;;-0.91;82.07;94167.97;5070643;28;20032;-40
2022/12/27 06:32:23;;;;;;;32.60;15.52;;;;;;;-0.82;82.03;94159.06;5067634;28;20052;-40
2022/12/27 06:34:49;;;;;;;34.20;16.73;;;;;;;-0.72;81.16;94162.50;5068292;28;20036;-40
2022/12/27 06:37:14;;;;;;;35.58;21.98;;;;;;;-0.67;81.33;94159.91;5070409;28;20040;-41
2022/12/27 06:39:40;;;;;;;47.55;24.55;;;;;;;-0.53;81.32;94153.81;5070759;28;20089;-40
2022/12/27 06:42:06;;;;;;;42.10;21.08;;;;;;;-0.51;80.85;94151.38;5069313;28;20111;-39
2022/12/27 06:44:31;;;;;;;37.95;21.45;;;;;;;-0.81;81.07;94157.88;5069557;28;20028;-39
2022/12/27 06:46:56;;;;;;;65.25;37.10;;;;;;;-1.07;81.15;94151.34;5071291;28;20021;-40
2022/12/27 06:49:22;;;;;;;64.47;34.95;;;;;;;-1.09;82.47;94148.31;5068705;28;20017;-39
2022/12/27 06:51:48;;;;;;;62.42;31.45;;;;;;;-1.07;83.00;94148.63;5072544;28;20032;-40
2022/12/27 06:54:14;;;;;;;56.22;31.45;;;;;;;-1.09;83.62;94151.03;5069934;28;20024;-40
2022/12/27 06:56:39;;;;;;;57.53;31.25;;;;;;;-0.89;83.30;94154.00;5066687;28;20034;-39
2022/12/27 06:59:05;;;;;;;58.20;31.83;;;;;;;-0.83;83.69;94146.72;5060612;28;20028;-40
2022/12/27 07:01:30;;;;;;;64.68;33.92;;;;;;;-0.62;83.52;94151.13;5067525;28;20029;-40
2022/12/27 07:03:57;;;;;;;82.25;41.80;;;;;;;-0.21;82.40;94149.53;5069556;28;20035;-41
2022/12/27 07:06:25;;;;;;;72.60;35.90;;;;;;;0.31;80.19;94153.53;5068455;28;20058;-40
2022/12/27 07:08:51;;;;;;;71.05;38.42;;;;;;;0.91;77.43;94158.56;5069157;28;20020;-39
2022/12/27 07:11:17;;;;;;;67.20;35.85;;;;;;;1.14;75.24;94150.28;5050171;28;20470;-39
2022/12/27 07:13:45;;;;;;;92.38;48.63;;;;;;;1.37;74.22;94116.00;5069487;28;20089;-40
2022/12/27 07:16:12;;;;;;;68.88;36.42;;;;;;;1.62;74.23;94147.28;5069116;28;20033;-40
2022/12/27 07:18:38;;;;;;;58.25;31.80;;;;;;;1.83;74.39;94144.09;5069497;28;20031;-40
2022/12/27 07:21:15;;;;;;;56.47;36.05;;;;;;;2.24;72.95;94144.84;5067703;28;20032;-40
2022/12/27 07:23:41;;;;;;;65.57;35.60;;;;;;;2.63;72.29;94143.31;5068482;28;20035;-40
2022/12/27 07:26:10;;;;;;;60.70;36.40;;;;;;;3.01;71.46;94139.44;5070021;28;20033;-40
2022/12/27 07:28:36;;;;;;;55.40;32.10;;;;;;;3.91;70.38;94142.31;5068674;28;20024;-41
2022/12/27 07:31:11;;;;;;;76.75;42.08;;;;;;;4.69;67.66;94139.88;5068657;28;20097;-40
2022/12/27 07:33:37;;;;;;;103.18;59.95;;;;;;;4.91;66.24;94148.88;5070094;28;20458;-40
2022/12/27 07:36:14;;;;;;;100.18;59.35;;;;;;;4.96;66.29;94150.13;5067576;28;20081;-40
2022/12/27 07:38:40;;;;;;;82.85;51.33;;;;;;;5.15;66.77;94145.66;5069645;28;20042;-40
2022/12/27 07:41:05;;;;;;;88.93;51.47;;;;;;;5.28;66.90;94138.44;5065787;28;20488;-40
2022/12/27 07:43:32;;;;;;;72.35;44.22;;;;;;;5.68;67.34;94134.44;5067210;28;20506;-40
2022/12/27 07:46:12;;;;;;;83.80;46.58;;;;;;;6.42;66.16;94134.50;5065974;28;20025;-40
2022/12/27 07:48:38;;;;;;;78.30;46.92;;;;;;;7.08;63.19;94136.13;5067279;28;20028;-40
2022/12/27 07:51:05;;;;;;;83.65;47.75;;;;;;;7.54;61.90;94138.78;5065448;28;20033;-40
2022/12/27 07:53:31;;;;;;;89.45;49.58;;;;;;;8.04;61.35;94113.59;5067671;28;20042;-40
2022/12/27 07:55:58;;;;;;;89.80;51.63;;;;;;;8.87;60.64;94137.38;5069458;28;20024;-40
2022/12/27 07:58:23;;;;;;;83.53;49.45;;;;;;;9.81;56.88;94130.44;5069117;28;20040;-41
2022/12/27 08:00:50;;;;;;;83.75;48.92;;;;;;;10.48;55.35;94126.50;5066013;28;20067;-43
2022/12/27 08:03:16;;;;;;;73.10;47.25;;;;;;;10.73;53.56;94129.75;5068721;28;20485;-40
2022/12/27 08:05:51;;;;;;;60.63;40.00;;;;;;;10.59;53.63;94129.75;5064161;28;20032;-40
2022/12/27 08:08:18;;;;;;;50.63;32.78;;;;;;;10.17;55.53;94125.31;5065065;28;20020;-41
2022/12/27 08:10:44;;;;;;;49.90;30.67;;;;;;;9.83;57.77;94125.13;5049139;28;20067;-41
2022/12/27 08:13:09;;;;;;;34.33;24.25;;;;;;;10.81;55.54;94119.53;5045441;28;20036;-41
2022/12/27 08:15:36;;;;;;;45.50;28.70;;;;;;;11.99;52.88;94122.59;5066880;28;20024;-40
2022/12/27 08:18:02;;;;;;;62.15;39.47;;;;;;;13.38;48.74;94122.25;5049235;28;20543;-42
2022/12/27 08:20:27;;;;;;;57.65;38.05;;;;;;;14.14;46.09;94120.31;5065788;28;20060;-41
2022/12/27 08:22:53;;;;;;;57.22;39.45;;;;;;;14.74;45.44;94128.59;5065243;28;20500;-41
2022/12/27 08:25:18;;;;;;;28.35;20.48;;;;;;;15.54;42.99;94118.28;5065839;28;20098;-41
2022/12/27 08:27:44;;;;;;;15.25;11.80;;;;;;;15.06;43.00;94095.28;5066475;28;20016;-48
2022/12/27 08:30:10;;;;;;;17.13;10.50;;;;;;;15.11;43.78;94113.81;5050145;28;20031;-48
2022/12/27 08:32:35;;;;;;;15.98;11.20;;;;;;;15.63;43.18;94119.69;5067438;28;20036;-49
2022/12/27 08:35:01;;;;;;;10.27;8.15;;;;;;;16.39;41.29;94119.88;5050146;28;20120;-48
2022/12/27 08:37:26;;;;;;;14.30;10.82;;;;;;;16.13;41.49;94110.06;5067139;28;20024;-50
2022/12/27 08:39:52;;;;;;;12.88;9.88;;;;;;;16.43;41.81;94109.81;5066667;28;20024;-41
2022/12/27 08:42:17;;;;;;;12.80;8.93;;;;;;;16.88;40.39;94125.38;5068297;28;20081;-40
2022/12/27 08:44:43;;;;;;;15.85;10.18;;;;;;;17.29;39.31;94118.94;5067706;28;20020;-42
2022/12/27 08:47:08;;;;;;;14.57;9.02;;;;;;;18.02;37.15;94114.22;5064923;28;20047;-42
2022/12/27 08:49:34;;;;;;;11.80;9.15;;;;;;;17.87;37.18;94105.34;5066345;28;20025;-41
2022/12/27 08:51:59;;;;;;;11.00;7.72;;;;;;;17.84;37.24;94109.31;5066663;28;20034;-40
2022/12/27 08:54:25;;;;;;;12.30;9.90;;;;;;;17.97;36.64;94112.47;5066295;28;20073;-40
2022/12/27 08:56:50;;;;;;;10.70;8.60;;;;;;;17.74;37.90;94109.25;5066307;28;20059;-41
2022/12/27 08:59:16;;;;;;;8.55;7.07;;;;;;;17.83;37.72;94099.44;5068300;28;20032;-39
2022/12/27 09:01:44;;;;;;;9.98;7.50;;;;;;;18.57;36.98;94090.44;5063434;28;20132;-39
2022/12/27 09:04:09;;;;;;;10.97;7.90;;;;;;;19.00;36.47;94091.50;5067301;28;20546;-40
2022/12/27 09:59:32;;;;;;;9.95;6.38;;;;;;;16.91;39.07;94045.38;5057482;28;20098;-69
2022/12/27 10:01:57;;;;;;;10.85;6.45;;;;;;;16.94;39.50;94033.06;5069121;28;20520;-69
2022/12/27 10:04:23;;;;;;;7.38;6.07;;;;;;;16.79;39.28;94044.41;5069361;28;20039;-70
2022/12/27 10:06:48;;;;;;;7.88;6.07;;;;;;;16.87;39.20;94043.00;5066214;28;20024;-42
2022/12/27 10:09:25;;;;;;;8.57;5.90;;;;;;;16.63;40.09;94043.84;5068237;28;20473;-43
2022/12/27 10:12:22;;;;;;;10.75;6.03;;;;;;;17.35;38.50;94037.72;5049496;28;20025;-43
2022/12/27 10:15:13;;;;;;;7.78;5.32;;;;;;;17.74;38.54;94035.88;5065364;28;20052;-43
2022/12/27 10:18:06;;;;;;;10.00;5.22;;;;;;;17.62;37.67;94027.31;5068664;28;20060;-43
2022/12/27 10:20:50;;;;;;;8.75;6.00;;;;;;;17.76;37.87;94022.81;5066829;28;20413;-45
2022/12/27 10:23:20;;;;;;;10.00;6.03;;;;;;;18.04;38.65;94027.75;5066191;28;20033;-46
2022/12/27 10:25:46;;;;;;;6.47;5.60;;;;;;;18.23;37.58;94020.75;5062018;28;20032;-44
2022/12/27 10:28:24;;;;;;;9.57;6.20;;;;;;;18.74;37.07;94017.59;5068930;28;20539;-43
2022/12/27 10:30:51;;;;;;;8.15;4.90;;;;;;;19.26;35.79;94021.38;5068042;28;20024;-44
2022/12/27 10:33:27;;;;;;;8.05;5.32;;;;;;;19.64;35.14;94028.97;5067613;28;20032;-44
2022/12/27 10:35:53;;;;;;;7.32;5.18;;;;;;;20.31;33.47;94015.38;5071927;28;20024;-43
2022/12/27 10:38:19;;;;;;;7.93;5.63;;;;;;;20.25;33.54;94014.22;5072353;28;20024;-44
2022/12/27 10:40:49;;;;;;;6.80;4.82;;;;;;;20.74;32.91;94007.72;5072052;28;20077;-44
2022/12/27 10:43:22;;;;;;;5.88;4.85;;;;;;;21.15;32.08;93994.22;5053204;28;20052;-61
2022/12/27 10:45:48;;;;;;;8.30;5.68;;;;;;;20.96;32.49;94000.00;5050024;28;20036;-61
2022/12/27 10:48:24;;;;;;;6.10;3.97;;;;;;;21.29;32.03;94000.03;5054099;28;20488;-62
2022/12/27 10:50:56;;;;;;;5.47;3.75;;;;;;;21.47;31.76;94001.88;5052738;28;20027;-61
2022/12/27 10:53:39;;;;;;;11.25;4.55;;;;;;;21.65;30.83;93994.59;5069338;28;20024;-61
2022/12/27 10:56:37;;;;;;;5.95;3.95;;;;;;;21.91;30.35;93980.69;5072001;28;20115;-61
2022/12/27 10:59:22;;;;;;;5.30;3.83;;;;;;;21.38;30.80;93985.13;5071924;28;20052;-61
2022/12/27 11:02:11;;;;;;;4.45;3.15;;;;;;;20.75;31.75;93981.09;5065136;28;20158;-61
2022/12/27 11:04:54;;;;;;;4.10;3.00;;;;;;;20.88;32.01;93983.34;5054297;28;20028;-61
2022/12/27 11:07:19;;;;;;;6.30;2.75;;;;;;;20.69;32.32;93977.91;5069670;28;20032;-61
2022/12/27 11:09:44;;;;;;;7.65;4.63;;;;;;;20.81;32.66;93984.31;5071327;28;20009;-61
2022/12/27 11:12:12;;;;;;;5.32;4.15;;;;;;;20.85;31.79;93978.97;5070400;28;20055;-62
2022/12/27 11:14:55;;;;;;;5.40;3.42;;;;;;;20.57;32.32;93973.59;5072343;28;20062;-40
2022/12/27 11:17:41;;;;;;;5.82;3.28;;;;;;;20.39;32.78;93979.47;5070362;28;20035;-41
2022/12/27 11:20:22;;;;;;;4.47;3.03;;;;;;;20.82;32.29;93979.44;5068975;28;20454;-41
2022/12/27 11:23:10;;;;;;;4.07;3.25;;;;;;;20.62;32.54;93983.75;5067603;28;20047;-43
2022/12/27 11:25:49;;;;;;;4.88;3.08;;;;;;;20.82;31.66;93974.56;5069476;28;20089;-43
2022/12/27 11:28:45;;;;;;;5.50;3.58;;;;;;;20.97;32.62;93985.34;5068572;28;20024;-45
2022/12/27 11:31:15;;;;;;;6.75;3.33;;;;;;;21.17;32.64;93980.31;5067994;28;20075;-40
2022/12/27 11:33:50;;;;;;;6.25;3.47;;;;;;;21.79;31.31;93980.66;5052559;28;20640;-40
2022/12/27 11:36:26;;;;;;;7.20;3.67;;;;;;;21.94;30.51;93979.47;5071153;28;20113;-42
2022/12/27 11:38:52;;;;;;;5.38;3.33;;;;;;;20.86;31.89;93974.06;5053767;28;20031;-42
2022/12/27 11:41:46;;;;;;;3.90;2.83;;;;;;;19.51;34.03;93979.75;5053454;28;20024;-43
2022/12/27 11:44:32;;;;;;;7.38;3.85;;;;;;;18.61;36.18;93981.66;5047860;28;20068;-45
2022/12/27 11:47:02;;;;;;;6.10;4.15;;;;;;;17.83;37.48;93980.06;5065699;28;20527;-44
2022/12/27 11:49:33;;;;;;;12.18;4.25;;;;;;;17.05;39.10;93990.69;5049031;28;20450;-45
2022/12/27 11:52:36;;;;;;;11.68;4.50;;;;;;;16.71;40.67;93999.88;5049731;28;20499;-45
2022/12/27 11:55:19;;;;;;;9.25;5.18;;;;;;;16.14;41.59;93986.19;5069149;28;20035;-48
2022/12/27 11:57:51;;;;;;;8.77;5.68;;;;;;;15.67;42.40;93989.22;5071166;28;20166;-46
2022/12/27 12:00:25;;;;;;;11.70;5.95;;;;;;;15.29;43.73;93991.53;5068391;28;20048;-43
2022/12/27 12:02:56;;;;;;;11.65;6.72;;;;;;;15.00;44.31;93991.13;5069710;28;20028;-43
2022/12/27 12:05:34;;;;;;;12.63;5.47;;;;;;;14.70;45.41;93985.72;5069985;28;20184;-43
2022/12/27 12:08:05;;;;;;;12.35;6.47;;;;;;;14.70;45.37;93994.81;5069504;28;20047;-44
2022/12/27 12:10:37;;;;;;;13.82;9.25;;;;;;;14.55;46.19;93991.34;5070362;28;20028;-43
2022/12/27 12:13:17;;;;;;;11.88;9.05;;;;;;;14.20;47.14;93982.00;5069297;28;20048;-43
2022/12/27 12:15:48;;;;;;;16.95;9.50;;;;;;;14.18;47.31;93990.16;5069872;28;20032;-44
2022/12/27 12:18:53;;;;;;;13.27;8.98;;;;;;;13.95;48.28;94000.53;5064474;28;20546;-43
2022/12/27 12:21:33;;;;;;;11.52;8.07;;;;;;;13.89;49.40;94016.66;5049348;28;20115;-45
2022/12/27 12:24:35;;;;;;;8.38;6.63;;;;;;;13.67;50.63;94013.34;5048248;28;20032;-46
2022/12/27 12:27:12;;;;;;;8.30;6.97;;;;;;;13.62;50.80;94019.81;5044320;28;20101;-43
2022/12/27 12:29:53;;;;;;;11.07;8.50;;;;;;;13.55;51.25;94025.38;5063465;28;20032;-44
2022/12/27 12:32:37;;;;;;;11.48;7.53;;;;;;;13.40;52.34;94026.13;5060711;28;20032;-44
2022/12/27 12:35:18;;;;;;;9.57;7.28;;;;;;;13.37;53.49;94027.22;5066462;28;20029;-44
2022/12/27 12:38:12;;;;;;;14.23;7.70;;;;;;;13.48;53.42;94020.56;5069669;28;20518;-43
2022/12/27 12:40:57;;;;;;;11.18;8.07;;;;;;;13.72;53.02;94022.03;5054817;28;20037;-47
2022/12/27 12:43:46;;;;;;;11.85;7.68;;;;;;;13.95;51.28;94029.03;5065714;28;20082;-44
2022/12/27 12:46:27;;;;;;;11.57;6.90;;;;;;;13.92;50.75;94030.19;5049725;28;21758;-44
2022/12/27 12:49:27;;;;;;;11.57;7.88;;;;;;;13.99;51.44;94037.03;5061512;28;20029;-46
2022/12/27 12:52:29;;;;;;;10.38;7.70;;;;;;;14.04;51.17;94038.84;5069650;28;20046;-43
2022/12/27 12:55:26;;;;;;;14.95;7.47;;;;;;;14.06;51.18;94027.91;5069868;28;20028;-42
2022/12/27 12:57:54;;;;;;;10.90;7.65;;;;;;;13.83;53.04;94041.84;5064980;28;20098;-43
2022/12/27 13:00:28;;;;;;;12.32;7.25;;;;;;;13.63;52.87;94037.94;5068496;28;20059;-43
2022/12/27 13:03:15;;;;;;;10.00;6.63;;;;;;;13.51;52.04;94042.38;5059956;28;20033;-43
2022/12/27 13:06:03;;;;;;;11.77;7.13;;;;;;;13.45;51.78;94032.75;5061548;28;20059;-42
2022/12/27 13:08:40;;;;;;;12.70;7.70;;;;;;;13.57;52.44;94044.97;5045352;28;20025;-41
2022/12/27 13:11:17;;;;;;;11.20;7.50;;;;;;;14.11;51.75;94038.84;5068487;28;20039;-41
2022/12/27 13:14:20;;;;;;;10.88;7.90;;;;;;;14.48;49.95;94042.88;5068399;28;20115;-41
2022/12/27 13:16:54;;;;;;;12.60;7.45;;;;;;;14.85;48.72;94030.13;5066760;28;20070;-42
2022/12/27 13:19:35;;;;;;;13.60;8.23;;;;;;;15.02;48.17;94049.69;5050925;28;20043;-42
2022/12/27 13:22:25;;;;;;;14.85;7.70;;;;;;;15.00;48.76;94041.94;5068158;28;20028;-43
2022/12/27 13:24:54;;;;;;;12.18;7.93;;;;;;;15.22;47.38;94050.72;5066442;28;20123;-41
2022/12/27 13:27:43;;;;;;;10.45;7.32;;;;;;;14.99;47.67;94048.78;5062945;28;20056;-41
2022/12/27 13:30:14;;;;;;;13.43;8.18;;;;;;;14.88;48.48;94054.00;5030567;28;20024;-41
2022/12/27 13:33:24;;;;;;;15.20;9.00;;;;;;;14.96;48.65;94055.50;5062278;28;20472;-41
2022/12/27 13:36:25;;;;;;;20.92;12.95;;;;;;;15.01;48.56;94043.41;4985056;28;20062;-40
2022/12/27 13:39:21;;;;;;;18.38;12.02;;;;;;;14.82;48.44;94050.72;5065468;28;20481;-43
2022/12/27 13:41:55;;;;;;;14.40;10.00;;;;;;;14.57;49.74;94058.97;5059037;28;20116;-43
2022/12/27 13:44:42;;;;;;;13.20;8.35;;;;;;;14.48;49.55;94064.34;5066737;28;20029;-42
2022/12/27 13:47:11;;;;;;;12.45;8.43;;;;;;;14.31;50.36;94064.94;5066347;28;20028;-43
2022/12/27 13:49:58;;;;;;;11.02;8.32;;;;;;;14.28;50.06;94066.03;5064579;28;20024;-42
2022/12/27 13:52:38;;;;;;;15.45;8.60;;;;;;;14.15;50.91;94063.47;5061352;28;20054;-44
2022/12/27 13:55:46;;;;;;;17.33;8.45;;;;;;;14.06;50.81;94072.34;5062432;28;20020;-43
2022/12/27 13:58:26;;;;;;;14.90;8.18;;;;;;;13.84;51.06;94062.72;5042899;28;20023;-44
2022/12/27 14:01:20;;;;;;;13.68;9.10;;;;;;;13.69;51.42;94071.06;5004764;28;20030;-43
2022/12/27 14:04:06;;;;;;;16.40;10.13;;;;;;;13.55;51.89;94078.09;5022577;28;20034;-42
2022/12/27 14:07:09;;;;;;;21.65;11.25;;;;;;;13.53;52.19;94086.97;5025636;28;20187;-43
2022/12/27 14:09:47;;;;;;;18.92;11.07;;;;;;;13.36;53.25;94097.09;5023672;28;20029;-43
2022/12/27 14:12:47;;;;;;;17.15;10.32;;;;;;;13.13;53.44;94087.97;5029691;28;20021;-42
2022/12/27 14:15:21;;;;;;;14.18;9.48;;;;;;;13.04;53.88;94083.66;5009115;28;20041;-41
2022/12/27 14:18:17;;;;;;;30.88;11.32;;;;;;;12.94;54.25;94088.25;5024632;28;20029;-42